Terminal Aerodrome Forecast
Issued by NWS

Home | Current Version | Previous Version | Text Only | Print | Product List | Glossary On
Versions: 1 2 3 4 5 6 7 8 9 10 11 12 13 14 15 16 17 18 19 20
199
FTPQ31 PGUM 221208 RRA
TAFKWA
TAF
PKWA 221208Z 2212/2312 07011KT P6SM VCSH SCT018 SCT045 BKN150
      TEMPO 2213/2217 5SM -SHRA BKN016=

USA.gov is the U.S. government's official web portal to all federal, state and local government web resources and services.